createdAt,value
2018-02-17T00:01:56.862Z,80.65
2018-02-17T00:04:23.053Z,80.77
2018-02-17T00:06:49.285Z,80.88
2018-02-17T00:09:15.483Z,81.03
2018-02-17T00:11:41.620Z,80.97
2018-02-17T00:14:07.811Z,81.07
2018-02-17T00:16:34.057Z,81.16
2018-02-17T00:19:00.257Z,81.29
2018-02-17T00:21:26.448Z,81.66
2018-02-17T00:23:52.673Z,81.53
2018-02-17T00:26:18.942Z,81.92
2018-02-17T00:28:45.159Z,82.25
2018-02-17T00:31:11.364Z,82.47
2018-02-17T00:33:37.588Z,82.62
2018-02-17T00:36:03.798Z,82.45
2018-02-17T00:38:30.025Z,82.58
2018-02-17T00:40:56.255Z,82.76
2018-02-17T00:43:22.424Z,83.17
2018-02-17T00:45:48.728Z,83.15
2018-02-17T00:48:14.907Z,83.18
2018-02-17T00:50:41.197Z,83.08
2018-02-17T00:53:07.376Z,83.16
2018-02-17T00:55:33.545Z,83.20
2018-02-17T00:57:59.795Z,83.12
2018-02-17T01:00:25.983Z,83.00
2018-02-17T01:02:52.145Z,83.09
2018-02-17T01:05:18.378Z,83.17
2018-02-17T01:07:44.593Z,83.10
2018-02-17T01:10:10.779Z,83.02
2018-02-17T01:12:36.945Z,82.80
2018-02-17T01:15:03.159Z,82.69
2018-02-17T01:17:29.396Z,82.41
2018-02-17T01:19:55.576Z,82.35
2018-02-17T01:22:21.759Z,82.48
2018-02-17T01:24:47.916Z,82.61
2018-02-17T01:27:14.213Z,82.20
2018-02-17T01:29:40.405Z,82.13
2018-02-17T01:32:06.576Z,81.80
2018-02-17T01:34:32.743Z,81.64
2018-02-17T01:36:58.998Z,81.58
2018-02-17T01:39:25.558Z,80.82
2018-02-17T01:41:51.752Z,80.12
2018-02-17T01:44:18.001Z,78.71
2018-02-17T01:46:44.228Z,78.70
2018-02-17T01:49:10.398Z,78.10
2018-02-17T01:51:36.648Z,78.29
2018-02-17T01:54:02.856Z,78.73
2018-02-17T01:56:29.023Z,78.47
2018-02-17T01:58:55.240Z,78.12
2018-02-17T02:01:21.451Z,77.34
2018-02-17T02:03:47.595Z,76.71
2018-02-17T02:06:13.814Z,75.68
2018-02-17T02:08:40.059Z,75.11
2018-02-17T02:11:06.215Z,75.01
2018-02-17T02:13:32.417Z,74.77
2018-02-17T02:15:58.661Z,75.34
2018-02-17T02:18:24.868Z,75.71
2018-02-17T02:20:51.047Z,75.87
2018-02-17T02:23:17.225Z,76.57
2018-02-17T02:25:43.388Z,76.68
2018-02-17T02:28:09.596Z,77.37
2018-02-17T02:30:35.757Z,77.29
2018-02-17T02:33:01.916Z,78.11
2018-02-17T02:35:28.125Z,78.80
2018-02-17T02:37:54.289Z,78.79
2018-02-17T02:40:20.436Z,78.90
2018-02-17T02:42:46.611Z,78.75
2018-02-17T02:45:12.775Z,78.64
2018-02-17T02:47:38.981Z,78.97
2018-02-17T02:50:05.199Z,79.15
2018-02-17T02:52:31.439Z,79.53
2018-02-17T02:54:57.634Z,79.62
2018-02-17T02:57:23.917Z,79.48
2018-02-17T02:59:50.075Z,78.97
2018-02-17T03:02:16.202Z,79.17
2018-02-17T03:04:42.315Z,78.94
2018-02-17T03:07:08.522Z,78.96
2018-02-17T03:09:34.656Z,79.28
2018-02-17T03:12:00.764Z,80.02
2018-02-17T03:14:26.887Z,80.11
2018-02-17T03:16:53.080Z,80.45
2018-02-17T03:19:19.179Z,80.34
2018-02-17T03:21:45.268Z,79.99
2018-02-17T03:24:11.413Z,79.61
2018-02-17T03:26:37.575Z,79.66
2018-02-17T03:29:03.691Z,79.75
2018-02-17T03:31:29.840Z,79.94
2018-02-17T03:33:56.027Z,80.07
2018-02-17T03:36:22.180Z,80.24
2018-02-17T03:38:48.349Z,79.90
2018-02-17T03:41:14.448Z,79.44
2018-02-17T03:43:40.541Z,79.69
2018-02-17T03:46:06.681Z,79.92
2018-02-17T03:48:32.836Z,80.06
2018-02-17T03:50:58.979Z,80.49
2018-02-17T03:53:25.107Z,80.14
2018-02-17T03:55:51.208Z,80.20
2018-02-17T03:58:17.610Z,80.34
2018-02-17T04:00:43.785Z,80.40
2018-02-17T04:03:09.882Z,79.80
2018-02-17T04:05:36.017Z,79.82
2018-02-17T04:08:02.210Z,80.05
2018-02-17T04:10:28.296Z,80.40
2018-02-17T04:12:54.379Z,80.37
2018-02-17T04:15:20.580Z,80.29
2018-02-17T04:17:46.751Z,80.49
2018-02-17T04:20:12.852Z,80.45
2018-02-17T04:22:38.983Z,80.04
2018-02-17T04:25:05.081Z,80.30
2018-02-17T04:27:31.285Z,80.59
2018-02-17T04:29:57.407Z,80.83
2018-02-17T04:32:23.509Z,81.01
2018-02-17T04:34:49.604Z,81.11
2018-02-17T04:37:15.762Z,81.03
2018-02-17T04:39:43.837Z,80.98
2018-02-17T04:42:10.882Z,81.30
2018-02-17T04:44:45.952Z,81.32
2018-02-17T04:47:26.945Z,81.06
2018-02-17T04:49:53.876Z,81.58
2018-02-17T04:52:32.770Z,81.19
2018-02-17T04:54:58.917Z,80.70
2018-02-17T04:57:31.980Z,80.55
2018-02-17T05:00:02.962Z,80.65
2018-02-17T05:02:34.142Z,80.64
2018-02-17T05:05:06.331Z,80.70
2018-02-17T05:07:32.529Z,81.27
2018-02-17T05:09:58.672Z,81.17
2018-02-17T05:12:24.850Z,80.92
2018-02-17T05:17:51.891Z,81.87
2018-02-17T05:20:18.895Z,81.65
2018-02-17T05:22:48.984Z,81.36
2018-02-17T05:25:19.104Z,81.47
2018-02-17T05:27:59.411Z,81.16
2018-02-17T05:30:26.423Z,81.36
2018-02-17T05:32:58.502Z,80.51
2018-02-17T05:35:25.700Z,80.38
2018-02-17T05:37:51.893Z,80.57
2018-02-17T05:40:22.934Z,80.73
2018-02-17T05:42:49.095Z,81.05
2018-02-17T05:45:18.082Z,81.26
2018-02-17T05:47:46.189Z,80.86
2018-02-17T05:50:16.237Z,81.35
2018-02-17T05:52:42.387Z,81.66
2018-02-17T05:55:08.543Z,81.71
2018-02-17T05:57:34.700Z,81.41
2018-02-17T06:00:00.792Z,81.19
2018-02-17T06:02:26.892Z,80.81
2018-02-17T06:04:53.072Z,81.28
2018-02-17T06:07:19.265Z,81.63
2018-02-17T06:09:45.371Z,81.07
2018-02-17T06:12:11.499Z,80.99
2018-02-17T06:14:37.655Z,81.39
2018-02-17T06:17:03.851Z,80.96
2018-02-17T06:19:29.964Z,80.74
2018-02-17T06:21:56.145Z,80.80
2018-02-17T06:24:22.278Z,80.54
2018-02-17T06:26:48.397Z,80.74
2018-02-17T06:29:14.588Z,80.98
2018-02-17T06:31:40.698Z,81.42
2018-02-17T06:34:06.790Z,81.36
2018-02-17T06:36:32.930Z,81.75
2018-02-17T06:38:59.104Z,81.19
2018-02-17T06:41:25.208Z,81.04
2018-02-17T06:43:51.322Z,80.83
2018-02-17T06:46:17.455Z,81.27
2018-02-17T06:48:43.621Z,81.54
2018-02-17T06:51:09.758Z,82.27
2018-02-17T06:53:35.914Z,82.32
2018-02-17T06:56:02.048Z,82.20
2018-02-17T06:58:28.230Z,81.66
2018-02-17T07:00:54.348Z,81.37
2018-02-17T07:03:20.527Z,81.37
2018-02-17T07:05:46.684Z,81.31
2018-02-17T07:08:12.852Z,81.82
2018-02-17T07:10:38.960Z,82.12
2018-02-17T07:13:05.058Z,81.95
2018-02-17T07:15:31.205Z,81.73
2018-02-17T07:17:57.397Z,81.75
2018-02-17T07:20:23.506Z,82.55
2018-02-17T07:22:49.607Z,82.66
2018-02-17T07:25:15.725Z,82.51
2018-02-17T07:27:41.883Z,83.14
2018-02-17T07:30:07.975Z,82.75
2018-02-17T07:32:34.071Z,82.37
2018-02-17T07:35:00.238Z,82.23
2018-02-17T07:37:26.418Z,82.56
2018-02-17T07:39:52.516Z,82.37
2018-02-17T07:42:18.613Z,82.11
2018-02-17T07:44:44.791Z,81.37
2018-02-17T07:47:10.907Z,81.31
2018-02-17T07:49:37.055Z,81.52
2018-02-17T07:52:03.228Z,81.05
2018-02-17T07:54:29.339Z,81.36
2018-02-17T07:56:56.575Z,81.26
2018-02-17T07:59:22.701Z,81.45
2018-02-17T08:01:49.683Z,81.20
2018-02-17T08:04:15.845Z,80.40
2018-02-17T08:06:41.969Z,80.52
2018-02-17T08:09:08.112Z,80.60
2018-02-17T08:11:34.220Z,80.63
2018-02-17T08:14:00.321Z,80.08
2018-02-17T08:16:26.514Z,79.92
2018-02-17T08:18:52.730Z,79.80
2018-02-17T08:21:18.849Z,79.39
2018-02-17T08:23:45.016Z,79.38
2018-02-17T08:26:11.165Z,79.11
2018-02-17T08:28:37.345Z,79.17
2018-02-17T08:31:03.512Z,79.29
2018-02-17T08:33:29.698Z,78.72
2018-02-17T08:35:55.887Z,78.73
2018-02-17T08:38:22.400Z,78.03
2018-02-17T08:40:48.563Z,77.76
2018-02-17T08:43:14.705Z,77.34
2018-02-17T08:45:40.869Z,76.65
2018-02-17T08:48:07.054Z,76.33
2018-02-17T08:50:33.236Z,75.70
2018-02-17T08:52:59.336Z,75.36
2018-02-17T08:55:25.468Z,74.52
2018-02-17T08:57:51.650Z,73.14
2018-02-17T09:00:17.753Z,72.41
2018-02-17T09:02:43.843Z,72.05
2018-02-17T09:05:09.987Z,71.79
2018-02-17T09:07:36.140Z,71.50
2018-02-17T09:10:02.346Z,70.60
2018-02-17T09:12:28.480Z,69.21
2018-02-17T09:14:54.584Z,68.81
2018-02-17T09:17:20.707Z,67.71
2018-02-17T09:19:46.873Z,68.49
2018-02-17T09:22:12.981Z,68.91
2018-02-17T09:24:39.131Z,69.03
2018-02-17T09:27:05.230Z,69.42
2018-02-17T09:29:31.374Z,69.71
2018-02-17T09:31:57.587Z,69.47
2018-02-17T09:34:23.687Z,70.63
2018-02-17T09:36:50.231Z,70.18
2018-02-17T09:39:16.430Z,67.71
2018-02-17T09:41:42.558Z,65.42
2018-02-17T09:44:08.658Z,66.46
2018-02-17T09:46:34.788Z,66.70
2018-02-17T09:49:00.945Z,65.60
2018-02-17T09:51:27.142Z,64.76
2018-02-17T09:53:53.310Z,63.78
2018-02-17T09:56:19.442Z,64.76
2018-02-17T09:58:45.592Z,65.50
2018-02-17T10:01:11.725Z,64.61
2018-02-17T10:03:37.859Z,65.05
2018-02-17T10:06:03.961Z,65.27
2018-02-17T10:08:30.176Z,63.90
2018-02-17T10:10:56.292Z,64.06
2018-02-17T10:13:22.411Z,64.99
2018-02-17T10:15:48.554Z,64.74
2018-02-17T10:18:14.781Z,65.87
2018-02-17T10:20:40.902Z,65.95
2018-02-17T10:23:07.078Z,65.58
2018-02-17T10:25:33.159Z,63.70
2018-02-17T10:27:59.295Z,65.99
2018-02-17T10:30:25.451Z,65.68
2018-02-17T10:32:51.554Z,67.24
2018-02-17T10:35:17.757Z,65.89
2018-02-17T10:37:43.860Z,66.09
2018-02-17T10:40:10.022Z,66.43
2018-02-17T10:42:36.201Z,65.96
2018-02-17T10:45:02.344Z,64.92
2018-02-17T10:47:28.452Z,64.94
2018-02-17T10:49:54.635Z,65.86
2018-02-17T10:52:20.793Z,66.66
2018-02-17T10:54:46.921Z,65.43
2018-02-17T10:57:13.093Z,65.29
2018-02-17T10:59:39.239Z,65.44
2018-02-17T11:02:05.380Z,65.23
2018-02-17T11:04:31.548Z,64.46
2018-02-17T11:06:57.681Z,64.67
2018-02-17T11:09:23.818Z,63.75
2018-02-17T11:11:50.013Z,63.29
2018-02-17T11:14:16.119Z,64.32
2018-02-17T11:16:42.241Z,63.21
2018-02-17T11:19:08.406Z,63.79
2018-02-17T11:21:34.666Z,63.78
2018-02-17T11:24:00.767Z,62.69
2018-02-17T11:26:27.045Z,62.71
2018-02-17T11:28:53.300Z,64.31
2018-02-17T11:31:19.520Z,63.05
2018-02-17T11:33:45.774Z,63.43
2018-02-17T11:36:11.944Z,61.82
2018-02-17T11:38:38.211Z,64.03
2018-02-17T11:41:04.487Z,63.87
2018-02-17T11:43:30.725Z,64.95
2018-02-17T11:45:56.911Z,64.77
2018-02-17T11:48:25.722Z,64.15
2018-02-17T11:50:51.906Z,63.12
2018-02-17T11:53:18.776Z,61.59
2018-02-17T11:55:45.002Z,60.74
2018-02-17T11:58:11.284Z,61.96
2018-02-17T12:00:44.465Z,61.28
2018-02-17T12:03:10.785Z,59.76
2018-02-17T12:05:37.795Z,59.61
2018-02-17T12:08:03.982Z,60.34
2018-02-17T12:10:30.108Z,59.31
2018-02-17T12:12:56.273Z,61.48
2018-02-17T12:15:22.374Z,62.09
2018-02-17T12:17:48.460Z,61.17
2018-02-17T12:20:14.604Z,61.40
2018-02-17T12:22:40.739Z,60.63
2018-02-17T12:25:06.874Z,58.37
2018-02-17T12:27:33.033Z,57.90
2018-02-17T12:29:59.126Z,56.39
2018-02-17T12:32:25.274Z,56.26
2018-02-17T12:34:51.384Z,55.63
2018-02-17T12:37:17.497Z,52.75
2018-02-17T12:39:43.846Z,53.80
2018-02-17T12:42:10.086Z,53.67
2018-02-17T12:44:36.194Z,53.43
2018-02-17T12:47:02.446Z,54.47
2018-02-17T12:49:28.665Z,52.41
2018-02-17T12:51:54.980Z,52.43
2018-02-17T12:54:21.199Z,51.10
2018-02-17T12:56:47.340Z,53.47
2018-02-17T12:59:13.728Z,54.29
2018-02-17T13:01:40.880Z,54.97
2018-02-17T13:04:07.056Z,53.26
2018-02-17T13:06:33.231Z,54.25
2018-02-17T13:08:59.437Z,53.30
2018-02-17T13:11:25.621Z,53.43
2018-02-17T13:13:51.788Z,53.61
2018-02-17T13:16:18.571Z,54.97
2018-02-17T13:18:44.882Z,52.38
2018-02-17T13:21:11.024Z,54.05
2018-02-17T13:23:37.212Z,55.47
2018-02-17T13:26:03.385Z,54.98
2018-02-17T13:28:29.601Z,54.38
2018-02-17T13:30:55.775Z,55.46
2018-02-17T13:33:22.029Z,54.99
2018-02-17T13:35:48.202Z,55.89
2018-02-17T13:38:14.364Z,54.57
2018-02-17T13:40:40.591Z,54.24
2018-02-17T13:43:06.805Z,53.90
2018-02-17T13:45:32.997Z,55.62
2018-02-17T13:47:59.127Z,52.68
2018-02-17T13:50:25.331Z,50.20
2018-02-17T13:52:51.587Z,49.04
2018-02-17T13:55:17.725Z,45.71
2018-02-17T13:57:43.931Z,42.83
2018-02-17T14:00:10.081Z,41.48
2018-02-17T14:02:36.256Z,42.86
2018-02-17T14:05:02.465Z,45.60
2018-02-17T14:07:28.660Z,45.59
2018-02-17T14:09:54.830Z,45.84
2018-02-17T14:12:21.028Z,45.57
2018-02-17T14:14:47.237Z,46.28
2018-02-17T14:17:13.406Z,46.79
2018-02-17T14:19:39.571Z,46.50
2018-02-17T14:22:05.880Z,49.54
2018-02-17T14:24:32.087Z,49.02
2018-02-17T14:26:58.239Z,48.00
2018-02-17T14:29:24.497Z,50.05
2018-02-17T14:31:50.637Z,49.52
2018-02-17T14:34:16.847Z,48.58
2018-02-17T14:36:43.068Z,49.21
2018-02-17T14:39:09.267Z,44.93
2018-02-17T14:41:35.400Z,46.04
2018-02-17T14:44:01.666Z,45.92
2018-02-17T14:46:27.881Z,44.24
2018-02-17T14:48:54.056Z,43.97
2018-02-17T14:51:20.330Z,44.37
2018-02-17T14:53:46.604Z,44.90
2018-02-17T14:56:12.760Z,44.98
2018-02-17T14:58:38.994Z,43.54
2018-02-17T15:01:05.239Z,44.58
2018-02-17T15:03:31.492Z,44.73
2018-02-17T15:05:57.673Z,44.44
2018-02-17T15:08:23.845Z,45.86
2018-02-17T15:10:49.993Z,44.49
2018-02-17T15:13:16.167Z,42.53
2018-02-17T15:15:42.311Z,40.58
2018-02-17T15:18:08.450Z,41.01
2018-02-17T15:20:34.660Z,43.13
2018-02-17T15:23:00.872Z,40.51
2018-02-17T15:25:27.040Z,40.51
2018-02-17T15:27:53.204Z,42.25
2018-02-17T15:30:19.366Z,42.03
2018-02-17T15:32:45.567Z,42.77
2018-02-17T15:35:13.081Z,42.10
2018-02-17T15:37:39.201Z,45.58
2018-02-17T15:40:05.392Z,44.34
2018-02-17T15:42:31.645Z,44.75
2018-02-17T15:44:57.829Z,47.11
2018-02-17T15:47:24.000Z,45.70
2018-02-17T15:49:50.180Z,45.44
2018-02-17T15:52:23.345Z,45.73
2018-02-17T15:54:49.485Z,43.89
2018-02-17T15:57:15.690Z,46.70
2018-02-17T15:59:41.822Z,46.68
2018-02-17T16:02:07.957Z,45.43
2018-02-17T16:04:34.225Z,46.32
2018-02-17T16:07:00.347Z,45.50
2018-02-17T16:09:26.543Z,44.50
2018-02-17T16:21:00.337Z,52.21
2018-02-17T16:23:26.515Z,55.34
2018-02-17T16:25:52.585Z,57.25
2018-02-17T16:28:18.742Z,60.89
2018-02-17T16:30:44.833Z,61.90
2018-02-17T16:33:10.979Z,62.67
2018-02-17T16:35:37.120Z,63.52
2018-02-17T16:38:03.220Z,65.01
2018-02-17T16:40:29.306Z,65.30
2018-02-17T16:42:55.507Z,66.14
2018-02-17T16:45:21.608Z,66.50
2018-02-17T16:47:47.699Z,67.24
2018-02-17T16:50:14.757Z,67.44
2018-02-17T16:52:40.975Z,67.90
2018-02-17T16:55:07.166Z,68.47
2018-02-17T16:57:33.420Z,68.80
2018-02-17T16:59:59.651Z,69.08
2018-02-17T17:02:25.855Z,69.96
2018-02-17T17:04:52.097Z,70.46
2018-02-17T17:07:18.353Z,70.93
2018-02-17T17:09:44.521Z,71.37
2018-02-17T17:12:10.702Z,71.91
2018-02-17T17:14:36.900Z,72.04
2018-02-17T17:17:03.128Z,72.23
2018-02-17T17:19:29.277Z,73.08
2018-02-17T17:21:55.496Z,73.14
2018-02-17T17:24:21.708Z,73.66
2018-02-17T17:26:47.887Z,74.28
2018-02-17T17:29:14.128Z,74.39
2018-02-17T17:31:40.294Z,74.87
2018-02-17T17:34:06.602Z,75.32
2018-02-17T17:36:32.815Z,76.31
2018-02-17T17:38:59.104Z,76.52
2018-02-17T17:41:25.512Z,76.81
2018-02-17T17:43:51.722Z,77.27
2018-02-17T17:46:17.962Z,77.40
2018-02-17T17:48:44.164Z,77.50
2018-02-17T17:51:10.432Z,78.56
2018-02-17T17:53:36.664Z,79.48
2018-02-17T17:56:02.893Z,79.15
2018-02-17T17:58:29.239Z,79.90
2018-02-17T18:00:55.426Z,80.12
2018-02-17T18:03:21.701Z,80.45
2018-02-17T18:05:47.890Z,80.80
2018-02-17T18:08:14.052Z,81.18
2018-02-17T18:10:40.243Z,80.83
2018-02-17T18:13:06.477Z,81.22
2018-02-17T18:15:32.659Z,81.19
2018-02-17T18:17:58.818Z,81.21
2018-02-17T18:20:25.030Z,81.50
2018-02-17T18:22:51.221Z,82.13
2018-02-17T18:25:17.520Z,82.59
2018-02-17T18:27:43.779Z,82.96
2018-02-17T18:30:10.132Z,83.54
2018-02-17T18:32:36.405Z,83.76
2018-02-17T18:35:02.771Z,84.01
2018-02-17T18:37:29.071Z,84.10
2018-02-17T18:39:55.266Z,84.11
2018-02-17T18:42:21.549Z,84.10
2018-02-17T18:44:47.782Z,83.99
2018-02-17T18:47:14.020Z,84.28
2018-02-17T18:49:40.211Z,84.59
2018-02-17T18:52:06.537Z,84.71
2018-02-17T18:54:32.778Z,84.80
2018-02-17T18:56:58.965Z,84.85
2018-02-17T18:59:25.209Z,85.14
2018-02-17T19:01:51.496Z,85.41
2018-02-17T19:04:17.748Z,85.63
2018-02-17T19:06:43.961Z,85.78
2018-02-17T19:09:10.272Z,85.83
2018-02-17T19:11:36.580Z,85.75
2018-02-17T19:14:02.870Z,85.73
2018-02-17T19:16:29.129Z,85.78
2018-02-17T19:18:55.308Z,85.99
2018-02-17T19:21:21.592Z,86.07
2018-02-17T19:23:47.793Z,86.14
2018-02-17T19:26:13.971Z,86.16
2018-02-17T19:28:40.282Z,86.20
2018-02-17T19:31:06.441Z,86.33
2018-02-17T19:33:32.725Z,86.54
2018-02-17T19:35:58.930Z,86.67
2018-02-17T19:38:25.131Z,86.77
2018-02-17T19:40:51.299Z,86.77
2018-02-17T19:43:17.549Z,86.90
2018-02-17T19:45:43.780Z,87.08
2018-02-17T19:48:10.016Z,87.16
2018-02-17T19:50:36.300Z,87.29
2018-02-17T19:53:02.496Z,87.33
2018-02-17T19:55:28.814Z,87.48
2018-02-17T19:57:55.106Z,87.53
2018-02-17T20:00:21.348Z,87.63
2018-02-17T20:02:47.583Z,87.66
2018-02-17T20:05:13.787Z,87.53
2018-02-17T20:07:40.040Z,87.44
2018-02-17T20:10:06.306Z,87.36
2018-02-17T20:12:32.490Z,87.30
2018-02-17T20:14:58.702Z,87.32
2018-02-17T20:17:24.936Z,87.51
2018-02-17T20:19:51.103Z,87.75
2018-02-17T20:22:17.301Z,87.74
2018-02-17T20:24:43.520Z,87.75
2018-02-17T20:27:10.048Z,87.76
2018-02-17T20:29:36.865Z,87.74
2018-02-17T20:32:04.422Z,87.87
2018-02-17T20:34:32.611Z,88.24
2018-02-17T20:37:01.647Z,88.07
2018-02-17T20:39:29.650Z,88.09
2018-02-17T20:41:56.007Z,88.11
2018-02-17T20:44:24.075Z,88.09
2018-02-17T20:47:01.220Z,88.04
2018-02-17T20:49:28.113Z,88.11
2018-02-17T20:51:55.394Z,88.31
2018-02-17T20:54:23.823Z,88.61
2018-02-17T20:56:52.678Z,88.63
2018-02-17T20:59:21.111Z,88.70
2018-02-17T21:01:48.324Z,88.79
2018-02-17T21:04:15.636Z,88.79
2018-02-17T21:06:43.344Z,88.81
2018-02-17T21:09:10.579Z,88.80
2018-02-17T21:11:40.186Z,88.82
2018-02-17T21:14:08.504Z,88.81
2018-02-17T21:19:13.533Z,88.89
2018-02-17T21:21:39.949Z,88.93
2018-02-17T21:24:07.369Z,88.92
2018-02-17T21:26:34.024Z,89.05
2018-02-17T21:29:03.356Z,89.13
2018-02-17T21:31:29.666Z,89.24
2018-02-17T21:33:58.089Z,89.22
2018-02-17T21:36:25.767Z,89.19
2018-02-17T21:38:52.124Z,89.19
2018-02-17T21:41:21.689Z,89.20
2018-02-17T21:43:48.350Z,89.42
2018-02-17T21:46:14.858Z,89.42
2018-02-17T21:48:41.297Z,89.42
2018-02-17T21:51:10.880Z,89.44
2018-02-17T21:53:41.680Z,89.47
2018-02-17T21:58:44.357Z,89.45
2018-02-17T22:01:12.333Z,89.41
2018-02-17T22:03:40.700Z,89.50
2018-02-17T22:06:09.524Z,89.67
2018-02-17T22:11:08.575Z,89.86
2018-02-17T22:13:36.430Z,89.94
2018-02-17T22:16:04.065Z,89.93
2018-02-17T22:18:33.057Z,89.95
2018-02-17T22:20:59.835Z,89.91
2018-02-17T22:26:00.342Z,89.85
2018-02-17T22:28:29.783Z,89.89
2018-02-17T22:30:56.056Z,89.91
2018-02-17T22:33:22.868Z,89.84
2018-02-17T22:35:56.386Z,89.88
2018-02-17T22:38:23.318Z,89.93
2018-02-17T22:40:50.458Z,89.97
2018-02-17T22:43:17.551Z,90.10
2018-02-17T22:45:43.857Z,90.22
2018-02-17T22:48:10.888Z,90.26
2018-02-17T22:50:37.612Z,90.19
2018-02-17T22:53:04.717Z,90.25
2018-02-17T22:55:32.616Z,90.25
2018-02-17T22:58:05.203Z,90.24
2018-02-17T23:00:32.568Z,90.15
2018-02-17T23:03:01.084Z,90.02
2018-02-17T23:05:29.096Z,90.08
2018-02-17T23:08:00.284Z,90.20
2018-02-17T23:10:26.570Z,90.22
2018-02-17T23:12:53.628Z,90.30
2018-02-17T23:15:19.962Z,90.36
2018-02-17T23:17:48.985Z,90.34
2018-02-17T23:20:16.509Z,90.33
2018-02-17T23:22:43.618Z,90.58
2018-02-17T23:25:12.748Z,90.57
2018-02-17T23:27:43.802Z,90.56
2018-02-17T23:30:10.098Z,90.61
2018-02-17T23:32:40.347Z,90.50
2018-02-17T23:37:45.025Z,90.64
2018-02-17T23:40:13.042Z,90.63
2018-02-17T23:42:41.576Z,90.58
2018-02-17T23:45:09.086Z,90.58
2018-02-17T23:47:36.667Z,90.64
2018-02-17T23:50:03.884Z,90.62
2018-02-17T23:52:30.623Z,90.80
2018-02-17T23:54:58.184Z,90.81
2018-02-17T23:57:24.881Z,90.83
2018-02-17T23:59:53.164Z,90.92
